CPX309 Details

Departure: Guam International Airport (PGUM)
Arrival: Tokyo-Narita International Airport (RJAA) at N/A
Route: UNZ TERYY G205 TEGOD A337 DAGDA G223 ADKAK Y819 CATCH Y815 KETAR Y811 VEPOX Y811 MELON
Notes:


Current Weather Information
PGUM 231154Z 08004KT 10SM CLR 27/24 A2990 RMK AO2 RAE03 SLP118 P0000 60000 T02720244 10300 20272 50010
RJAA 231200Z 07005KT 9999 FEW025 BKN/// 17/14 Q1021 NOSIG